createdAt,value
2023-09-09T00:01:18.262Z,1.88
2023-09-09T00:03:50.164Z,2.15
2023-09-09T00:06:17.985Z,1.80
2023-09-09T00:08:45.431Z,1.85
2023-09-09T00:11:12.837Z,1.63
2023-09-09T00:13:40.050Z,2.03
2023-09-09T00:16:09.736Z,2.40
2023-09-09T00:18:37.503Z,2.58
2023-09-09T00:21:06.324Z,2.30
2023-09-09T00:23:36.226Z,2.10
2023-09-09T00:26:03.277Z,2.22
2023-09-09T00:28:30.057Z,2.70
2023-09-09T00:30:57.180Z,2.30
2023-09-09T00:33:24.387Z,2.35
2023-09-09T00:35:51.437Z,2.03
2023-09-09T00:38:19.062Z,2.25
2023-09-09T00:41:16.888Z,2.05
2023-09-09T00:43:45.199Z,2.40
2023-09-09T00:46:15.124Z,1.75
2023-09-09T00:48:42.375Z,2.03
2023-09-09T00:51:13.218Z,1.80
2023-09-09T00:53:41.338Z,1.63
2023-09-09T00:56:08.393Z,1.83
2023-09-09T00:58:35.201Z,1.90
2023-09-09T01:01:04.454Z,1.60
2023-09-09T01:03:32.477Z,2.55
2023-09-09T01:06:01.205Z,2.17
2023-09-09T01:08:29.640Z,1.88
2023-09-09T01:10:57.649Z,1.98
2023-09-09T01:13:24.749Z,1.98
2023-09-09T01:15:51.995Z,2.03
2023-09-09T01:18:19.326Z,1.70
2023-09-09T01:21:00.922Z,2.10
2023-09-09T01:23:27.871Z,1.90
2023-09-09T01:25:54.592Z,1.85
2023-09-09T01:28:23.574Z,2.17
2023-09-09T01:30:51.200Z,1.80
2023-09-09T01:33:18.810Z,2.05
2023-09-09T01:35:47.615Z,1.65
2023-09-09T01:38:15.485Z,2.03
2023-09-09T01:40:42.493Z,1.70
2023-09-09T01:43:09.478Z,2.00
2023-09-09T01:45:36.789Z,1.52
2023-09-09T01:48:06.372Z,2.17
2023-09-09T01:50:33.623Z,2.17
2023-09-09T01:53:03.587Z,1.60
2023-09-09T01:55:30.403Z,2.17
2023-09-09T01:58:00.457Z,2.08
2023-09-09T02:00:31.880Z,1.80
2023-09-09T02:02:59.483Z,2.15
2023-09-09T02:05:26.843Z,2.33
2023-09-09T02:07:54.100Z,1.60
2023-09-09T02:10:25.382Z,1.80
2023-09-09T02:12:52.709Z,2.05
2023-09-09T02:15:22.306Z,1.70
2023-09-09T02:17:50.203Z,1.90
2023-09-09T02:20:21.857Z,1.92
2023-09-09T02:22:50.192Z,2.20
2023-09-09T02:25:17.198Z,2.30
2023-09-09T02:27:45.420Z,2.03
2023-09-09T02:30:13.572Z,2.30
2023-09-09T02:32:40.735Z,2.33
2023-09-09T02:35:09.863Z,1.88
2023-09-09T02:37:36.792Z,1.60
2023-09-09T02:40:05.140Z,2.00
2023-09-09T02:42:32.299Z,2.15
2023-09-09T02:44:59.224Z,2.40
2023-09-09T02:47:26.185Z,2.13
2023-09-09T02:49:54.911Z,2.00
2023-09-09T02:52:22.400Z,2.35
2023-09-09T02:54:49.383Z,1.92
2023-09-09T02:57:16.475Z,2.17
2023-09-09T02:59:45.073Z,2.03
2023-09-09T03:02:14.244Z,2.00
2023-09-09T03:04:41.460Z,2.08
2023-09-09T03:07:09.823Z,2.35
2023-09-09T03:09:37.530Z,1.92
2023-09-09T03:12:08.571Z,2.17
2023-09-09T03:14:35.834Z,1.92
2023-09-09T03:17:02.817Z,2.55
2023-09-09T03:19:30.641Z,2.13
2023-09-09T03:21:58.866Z,1.95
2023-09-09T03:24:26.222Z,2.60
2023-09-09T03:26:57.783Z,2.10
2023-09-09T03:29:25.190Z,2.38
2023-09-09T03:31:53.492Z,1.88
2023-09-09T03:34:20.408Z,2.20
2023-09-09T03:36:47.764Z,1.95
2023-09-09T03:39:14.808Z,2.30
2023-09-09T03:41:41.619Z,2.28
2023-09-09T03:44:08.825Z,2.30
2023-09-09T03:46:36.395Z,2.35
2023-09-09T03:49:03.913Z,2.17
2023-09-09T03:51:31.122Z,2.22
2023-09-09T03:53:58.759Z,2.38
2023-09-09T03:56:26.343Z,2.60
2023-09-09T03:58:53.189Z,2.50
2023-09-09T04:01:19.978Z,2.35
2023-09-09T04:03:47.328Z,2.17
2023-09-09T04:06:18.493Z,2.10
2023-09-09T04:08:46.751Z,2.17
2023-09-09T04:11:14.636Z,2.42
2023-09-09T04:13:42.177Z,2.28
2023-09-09T04:16:09.677Z,2.22
2023-09-09T04:21:06.759Z,2.00
2023-09-09T04:23:33.563Z,2.33
2023-09-09T04:26:03.518Z,1.98
2023-09-09T04:28:32.948Z,2.13
2023-09-09T04:31:00.144Z,2.03
2023-09-09T04:33:27.162Z,1.90
2023-09-09T04:35:53.945Z,1.67
2023-09-09T04:38:22.521Z,2.05
2023-09-09T04:40:49.758Z,1.90
2023-09-09T04:43:17.072Z,2.33
2023-09-09T04:45:44.460Z,1.95
2023-09-09T04:48:11.828Z,2.10
2023-09-09T04:50:41.722Z,1.80
2023-09-09T04:53:09.053Z,2.10
2023-09-09T04:55:36.808Z,2.08
2023-09-09T04:58:09.686Z,2.00
2023-09-09T05:00:40.974Z,1.90
2023-09-09T05:03:11.087Z,2.95
2023-09-09T05:05:38.444Z,2.00
2023-09-09T05:08:08.394Z,1.95
2023-09-09T05:10:35.609Z,1.80
2023-09-09T05:13:08.847Z,1.60
2023-09-09T05:15:37.130Z,2.10
2023-09-09T05:18:24.339Z,2.00
2023-09-09T05:20:54.776Z,1.38
2023-09-09T05:23:21.788Z,2.03
2023-09-09T05:25:49.479Z,1.65
2023-09-09T05:28:16.925Z,2.22
2023-09-09T05:30:45.189Z,1.80
2023-09-09T05:33:12.579Z,1.63
2023-09-09T05:35:39.641Z,1.45
2023-09-09T05:38:09.545Z,1.60
2023-09-09T05:40:36.401Z,1.92
2023-09-09T05:43:05.645Z,1.67
2023-09-09T05:45:32.610Z,1.70
2023-09-09T05:47:59.834Z,1.67
2023-09-09T05:50:27.095Z,1.83
2023-09-09T05:52:57.214Z,1.50
2023-09-09T05:55:25.484Z,1.80
2023-09-09T05:57:53.531Z,1.20
2023-09-09T06:00:21.317Z,1.50
2023-09-09T06:02:49.311Z,1.88
2023-09-09T06:05:16.529Z,1.70
2023-09-09T06:07:45.634Z,1.60
2023-09-09T06:10:12.883Z,1.50
2023-09-09T06:12:39.909Z,1.60
2023-09-09T06:15:07.316Z,1.45
2023-09-09T06:17:34.404Z,1.90
2023-09-09T06:20:03.017Z,1.95
2023-09-09T06:22:33.467Z,1.55
2023-09-09T06:25:01.213Z,1.65
2023-09-09T06:27:28.286Z,2.25
2023-09-09T06:30:10.181Z,1.40
2023-09-09T06:32:37.253Z,1.98
2023-09-09T06:35:08.334Z,1.40
2023-09-09T06:37:36.721Z,1.50
2023-09-09T06:40:06.882Z,1.75
2023-09-09T06:42:33.805Z,1.63
2023-09-09T06:45:04.426Z,1.75
2023-09-09T06:47:41.968Z,1.80
2023-09-09T06:50:25.482Z,1.65
2023-09-09T06:52:53.700Z,1.90
2023-09-09T06:55:35.901Z,1.60
2023-09-09T06:58:14.930Z,1.90
2023-09-09T07:01:07.445Z,2.03
2023-09-09T07:03:39.235Z,2.10
2023-09-09T07:06:16.412Z,2.13
2023-09-09T07:08:44.984Z,1.90
2023-09-09T07:11:11.936Z,1.90
2023-09-09T07:13:39.228Z,1.77
2023-09-09T07:16:06.689Z,2.25
2023-09-09T07:18:38.571Z,2.00
2023-09-09T07:21:05.625Z,1.83
2023-09-09T07:23:57.221Z,2.22
2023-09-09T07:26:24.453Z,1.85
2023-09-09T07:31:41.939Z,1.77
2023-09-09T07:34:10.128Z,1.90
2023-09-09T07:36:37.009Z,1.85
2023-09-09T07:40:09.769Z,1.70
2023-09-09T07:43:01.566Z,1.80
2023-09-09T07:45:28.744Z,2.72
2023-09-09T07:47:56.839Z,1.92
2023-09-09T07:50:26.337Z,1.60
2023-09-09T07:52:53.408Z,2.30
2023-09-09T07:55:21.679Z,2.80
2023-09-09T07:57:49.232Z,3.22
2023-09-09T08:00:16.628Z,2.25
2023-09-09T08:02:44.600Z,2.20
2023-09-09T08:05:14.631Z,2.22
2023-09-09T08:07:44.086Z,1.77
2023-09-09T08:10:12.845Z,2.08
2023-09-09T08:12:42.420Z,1.65
2023-09-09T08:15:41.656Z,1.48
2023-09-09T08:18:06.503Z,1.50
2023-09-09T08:20:49.194Z,1.08
2023-09-09T08:23:16.175Z,1.38
2023-09-09T08:25:43.166Z,1.48
2023-09-09T08:28:12.843Z,1.27
2023-09-09T08:30:47.389Z,1.27
2023-09-09T08:33:21.782Z,1.13
2023-09-09T08:36:10.939Z,1.10
2023-09-09T08:38:37.848Z,1.30
2023-09-09T08:41:35.568Z,1.40
2023-09-09T08:44:38.946Z,1.30
2023-09-09T08:47:31.019Z,1.60
2023-09-09T08:50:02.942Z,1.25
2023-09-09T08:52:30.352Z,1.08
2023-09-09T08:55:02.620Z,0.80
2023-09-09T08:57:31.028Z,1.08
2023-09-09T09:00:02.213Z,1.50
2023-09-09T09:02:36.101Z,1.35
2023-09-09T09:05:05.025Z,1.05
2023-09-09T09:07:36.344Z,1.58
2023-09-09T09:10:04.347Z,1.00
2023-09-09T09:12:46.607Z,1.08
2023-09-09T09:15:13.701Z,1.45
2023-09-09T09:17:46.319Z,1.20
2023-09-09T09:20:41.244Z,1.10
2023-09-09T09:23:12.865Z,1.30
2023-09-09T09:25:51.872Z,1.40
2023-09-09T09:28:21.150Z,1.98
2023-09-09T09:31:01.851Z,1.25
2023-09-09T09:33:31.643Z,1.20
2023-09-09T09:36:01.237Z,1.10
2023-09-09T09:38:28.620Z,1.15
2023-09-09T09:41:00.507Z,1.35
2023-09-09T09:43:27.514Z,1.20
2023-09-09T09:45:54.367Z,1.05
2023-09-09T09:48:30.865Z,1.00
2023-09-09T09:50:59.952Z,1.05
2023-09-09T09:53:31.705Z,0.93
2023-09-09T10:00:28.501Z,1.17
2023-09-09T10:03:00.360Z,1.10
2023-09-09T10:05:33.758Z,0.82
2023-09-09T10:08:36.675Z,0.88
2023-09-09T10:11:07.084Z,1.10
2023-09-09T10:13:44.441Z,1.40
2023-09-09T10:16:14.433Z,1.30
2023-09-09T10:18:43.421Z,1.23
2023-09-09T10:21:13.399Z,1.90
2023-09-09T10:23:42.419Z,1.70
2023-09-09T10:26:10.695Z,1.38
2023-09-09T10:28:38.502Z,2.03
2023-09-09T10:31:12.714Z,1.48
2023-09-09T10:34:06.591Z,0.90
2023-09-09T10:36:43.900Z,1.15
2023-09-09T10:39:23.580Z,1.30
2023-09-09T10:41:51.510Z,1.45
2023-09-09T10:44:18.705Z,1.42
2023-09-09T10:46:45.828Z,1.13
2023-09-09T10:49:17.662Z,1.00
2023-09-09T10:52:04.714Z,0.88
2023-09-09T10:54:35.677Z,1.13
2023-09-09T10:57:06.264Z,1.00
2023-09-09T10:59:33.814Z,0.90
2023-09-09T11:02:23.531Z,1.30
2023-09-09T11:05:04.392Z,0.73
2023-09-09T11:07:44.389Z,1.00
2023-09-09T11:10:16.942Z,0.70
2023-09-09T11:12:53.236Z,0.70
2023-09-09T11:15:45.639Z,0.70
2023-09-09T11:18:23.612Z,0.70
2023-09-09T11:20:52.396Z,0.98
2023-09-09T11:23:19.361Z,0.95
2023-09-09T11:25:52.749Z,0.95
2023-09-09T11:28:19.934Z,1.05
2023-09-09T11:30:49.126Z,0.90
2023-09-09T11:33:26.663Z,1.15
2023-09-09T11:35:53.999Z,1.02
2023-09-09T11:38:22.088Z,1.50
2023-09-09T11:41:34.330Z,1.02
2023-09-09T11:44:09.164Z,1.20
2023-09-09T11:46:43.604Z,0.90
2023-09-09T11:49:17.551Z,0.98
2023-09-09T11:51:47.642Z,0.93
2023-09-09T11:54:22.008Z,0.80
2023-09-09T11:59:16.931Z,0.80
2023-09-09T12:01:48.005Z,0.90
2023-09-09T12:04:17.275Z,1.08
2023-09-09T12:06:46.965Z,0.65
2023-09-09T12:09:15.415Z,1.02
2023-09-09T12:11:47.811Z,1.00
2023-09-09T12:14:21.718Z,1.00
2023-09-09T12:16:48.874Z,0.77
2023-09-09T12:19:16.806Z,1.00
2023-09-09T12:21:46.865Z,1.17
2023-09-09T12:24:16.066Z,0.75
2023-09-09T12:26:56.455Z,0.70
2023-09-09T12:29:26.812Z,0.93
2023-09-09T12:32:00.105Z,0.88
2023-09-09T12:34:28.117Z,0.90
2023-09-09T12:36:59.997Z,1.17
2023-09-09T12:39:30.308Z,1.02
2023-09-09T12:42:08.390Z,0.82
2023-09-09T12:44:49.819Z,0.80
2023-09-09T12:47:24.145Z,0.82
2023-09-09T12:49:51.924Z,1.10
2023-09-09T12:52:19.396Z,0.73
2023-09-09T12:54:46.227Z,1.08
2023-09-09T12:57:13.136Z,1.35
2023-09-09T12:59:42.497Z,1.10
2023-09-09T13:02:09.332Z,0.60
2023-09-09T13:04:36.281Z,0.73
2023-09-09T13:07:03.599Z,0.80
2023-09-09T13:09:30.432Z,1.08
2023-09-09T13:11:57.500Z,1.05
2023-09-09T13:14:27.138Z,0.95
2023-09-09T13:16:55.700Z,1.05
2023-09-09T13:19:26.409Z,0.73
2023-09-09T13:21:55.902Z,0.73
2023-09-09T13:24:23.180Z,0.82
2023-09-09T13:26:51.049Z,1.10
2023-09-09T13:29:18.719Z,0.82
2023-09-09T13:31:45.784Z,1.10
2023-09-09T13:34:13.096Z,1.13
2023-09-09T13:36:43.033Z,0.93
2023-09-09T13:39:09.951Z,0.90
2023-09-09T13:41:37.166Z,1.00
2023-09-09T13:44:04.325Z,1.02
2023-09-09T13:46:31.381Z,1.05
2023-09-09T13:48:58.229Z,0.88
2023-09-09T13:51:25.989Z,1.05
2023-09-09T13:53:56.204Z,0.70
2023-09-09T13:56:24.458Z,0.88
2023-09-09T13:58:51.327Z,1.25
2023-09-09T14:01:18.838Z,1.55
2023-09-09T14:03:45.928Z,0.90
2023-09-09T14:06:12.880Z,1.35
2023-09-09T14:08:39.933Z,0.70
2023-09-09T14:11:06.900Z,0.80
2023-09-09T14:13:33.972Z,1.10
2023-09-09T14:16:08.377Z,1.23
2023-09-09T14:18:35.679Z,0.80
2023-09-09T14:21:02.863Z,0.80
2023-09-09T14:23:29.796Z,0.77
2023-09-09T14:25:56.807Z,0.93
2023-09-09T14:28:31.233Z,0.80
2023-09-09T14:31:00.305Z,1.63
2023-09-09T14:33:32.554Z,0.80
2023-09-09T14:35:59.749Z,0.98
2023-09-09T14:38:32.564Z,0.98
2023-09-09T14:41:00.300Z,1.20
2023-09-09T14:43:27.395Z,2.47
2023-09-09T14:45:54.431Z,54.15
2023-09-09T14:48:21.504Z,43.70
2023-09-09T14:50:51.871Z,116.63
2023-09-09T14:53:19.221Z,56.95
2023-09-09T14:55:46.620Z,63.50
2023-09-09T14:58:13.473Z,8.07
2023-09-09T15:00:40.748Z,30.60
2023-09-09T15:03:07.815Z,19.50
2023-09-09T15:05:38.338Z,29.58
2023-09-09T15:08:06.203Z,14.45
2023-09-09T15:10:34.162Z,14.60
2023-09-09T15:13:01.055Z,22.17
2023-09-09T15:15:28.258Z,7.60
2023-09-09T15:17:56.267Z,10.30
2023-09-09T15:20:23.432Z,15.88
2023-09-09T15:22:50.381Z,16.52
2023-09-09T15:25:17.457Z,12.00
2023-09-09T15:27:44.265Z,7.45
2023-09-09T15:30:12.029Z,39.88
2023-09-09T15:32:39.147Z,12.48
2023-09-09T15:35:06.382Z,18.48
2023-09-09T15:37:39.315Z,45.28
2023-09-09T15:40:14.864Z,24.55
2023-09-09T15:42:45.969Z,20.55
2023-09-09T15:45:12.978Z,9.20
2023-09-09T15:47:41.377Z,9.95
2023-09-09T15:50:08.861Z,34.78
2023-09-09T15:52:35.823Z,9.18
2023-09-09T15:55:03.972Z,2.22
2023-09-09T15:57:36.209Z,18.33
2023-09-09T16:00:14.412Z,16.95
2023-09-09T16:02:50.016Z,13.18
2023-09-09T16:05:25.723Z,7.95
2023-09-09T16:07:53.317Z,5.95
2023-09-09T16:10:29.388Z,4.38
2023-09-09T16:12:58.707Z,2.08
2023-09-09T16:15:26.019Z,5.95
2023-09-09T16:17:53.161Z,1.75
2023-09-09T16:20:20.105Z,2.97
2023-09-09T16:22:47.366Z,9.65
2023-09-09T16:25:34.366Z,4.03
2023-09-09T16:28:01.541Z,2.42
2023-09-09T16:30:28.526Z,2.70
2023-09-09T16:32:56.464Z,5.22
2023-09-09T16:35:23.486Z,7.13
2023-09-09T16:37:50.562Z,3.92
2023-09-09T16:40:17.974Z,2.80
2023-09-09T16:42:44.811Z,3.30
2023-09-09T16:45:11.632Z,2.95
2023-09-09T16:47:38.462Z,2.42
2023-09-09T16:50:08.391Z,1.92
2023-09-09T16:52:35.731Z,1.75
2023-09-09T16:55:04.228Z,1.80
2023-09-09T16:57:32.273Z,1.63
2023-09-09T17:00:01.889Z,2.10
2023-09-09T17:02:31.850Z,2.80
2023-09-09T17:05:16.677Z,1.90
2023-09-09T17:07:49.077Z,3.08
2023-09-09T17:10:50.784Z,2.28
2023-09-09T17:13:19.238Z,2.15
2023-09-09T17:16:05.153Z,1.45
2023-09-09T17:18:35.463Z,2.05
2023-09-09T17:21:04.952Z,2.10
2023-09-09T17:23:37.477Z,2.10
2023-09-09T17:26:09.303Z,1.73
2023-09-09T17:28:41.817Z,2.17
2023-09-09T17:31:11.536Z,1.83
2023-09-09T17:33:38.740Z,2.00
2023-09-09T17:36:06.995Z,2.15
2023-09-09T17:38:43.201Z,1.58
2023-09-09T17:41:24.716Z,1.90
2023-09-09T17:44:40.731Z,1.60
2023-09-09T17:47:14.222Z,1.58
2023-09-09T17:49:45.853Z,1.95
2023-09-09T17:52:15.935Z,1.50
2023-09-09T17:54:43.362Z,1.70
2023-09-09T17:57:10.619Z,1.95
2023-09-09T17:59:37.719Z,2.50
2023-09-09T18:02:05.641Z,2.40
2023-09-09T18:04:36.214Z,2.20
2023-09-09T18:07:03.490Z,2.00
2023-09-09T18:09:30.684Z,2.00
2023-09-09T18:11:57.770Z,2.17
2023-09-09T18:14:28.257Z,2.45
2023-09-09T18:16:55.514Z,2.55
2023-09-09T18:19:23.622Z,3.13
2023-09-09T18:21:50.456Z,3.50
2023-09-09T18:24:17.798Z,2.67
2023-09-09T18:26:44.565Z,2.58
2023-09-09T18:29:11.532Z,2.60
2023-09-09T18:31:38.420Z,2.47
2023-09-09T18:34:07.723Z,2.50
2023-09-09T18:36:44.964Z,2.58
2023-09-09T18:39:11.807Z,2.50
2023-09-09T18:41:38.818Z,2.65
2023-09-09T18:44:06.884Z,2.65
2023-09-09T18:46:33.875Z,2.63
2023-09-09T18:49:02.008Z,2.15
2023-09-09T18:51:28.840Z,2.20
2023-09-09T18:53:55.697Z,2.65
2023-09-09T18:56:23.644Z,2.33
2023-09-09T18:58:50.590Z,2.60
2023-09-09T19:01:23.099Z,2.92
2023-09-09T19:03:52.659Z,2.88
2023-09-09T19:06:19.641Z,3.42
2023-09-09T19:08:49.443Z,2.90
2023-09-09T19:11:17.632Z,3.00
2023-09-09T19:13:44.838Z,2.80
2023-09-09T19:16:12.431Z,3.10
2023-09-09T19:18:44.768Z,2.72
2023-09-09T19:21:13.072Z,3.08
2023-09-09T19:23:44.411Z,3.13
2023-09-09T19:26:14.335Z,3.80
2023-09-09T19:28:43.552Z,3.40
2023-09-09T19:31:13.398Z,3.20
2023-09-09T19:33:44.455Z,3.67
2023-09-09T19:36:13.820Z,3.10
2023-09-09T19:38:40.851Z,3.30
2023-09-09T19:41:07.845Z,3.00
2023-09-09T19:43:36.961Z,3.65
2023-09-09T19:46:05.722Z,3.58
2023-09-09T19:48:32.559Z,3.35
2023-09-09T19:51:01.654Z,3.35
2023-09-09T19:53:28.521Z,3.00
2023-09-09T19:55:55.518Z,3.28
2023-09-09T19:58:25.019Z,2.90
2023-09-09T20:00:51.842Z,3.28
2023-09-09T20:03:18.672Z,3.10
2023-09-09T20:05:51.935Z,3.47
2023-09-09T20:08:18.812Z,3.00
2023-09-09T20:10:45.701Z,2.45
2023-09-09T20:13:12.992Z,2.90
2023-09-09T20:15:42.546Z,2.47
2023-09-09T20:18:09.594Z,2.90
2023-09-09T20:20:40.053Z,2.40
2023-09-09T20:23:06.876Z,3.03
2023-09-09T20:25:33.857Z,3.65
2023-09-09T20:28:00.711Z,3.08
2023-09-09T20:30:34.547Z,2.58
2023-09-09T20:33:01.459Z,3.15
2023-09-09T20:35:34.689Z,3.10
2023-09-09T20:38:04.137Z,3.60
2023-09-09T20:40:30.920Z,3.00
2023-09-09T20:43:00.188Z,3.38
2023-09-09T20:45:29.458Z,3.58
2023-09-09T20:47:56.459Z,3.45
2023-09-09T20:50:25.624Z,2.72
2023-09-09T20:52:54.526Z,3.60
2023-09-09T20:55:22.761Z,3.30
2023-09-09T20:57:49.812Z,3.42
2023-09-09T21:00:18.622Z,3.22
2023-09-09T21:02:47.592Z,3.33
2023-09-09T21:05:16.028Z,3.75
2023-09-09T21:07:44.108Z,2.75
2023-09-09T21:10:11.905Z,3.00
2023-09-09T21:12:42.875Z,3.60
2023-09-09T21:15:10.718Z,3.55
2023-09-09T21:17:37.478Z,2.83
2023-09-09T21:20:04.879Z,4.07
2023-09-09T21:22:32.095Z,3.80
2023-09-09T21:25:03.317Z,3.20
2023-09-09T21:27:31.131Z,3.10
2023-09-09T21:29:57.824Z,3.13
2023-09-09T21:32:26.123Z,3.33
2023-09-09T21:34:52.936Z,3.17
2023-09-09T21:37:22.518Z,2.65
2023-09-09T21:40:07.366Z,2.50
2023-09-09T21:42:41.545Z,2.67
2023-09-09T21:45:08.544Z,2.92
2023-09-09T21:47:39.195Z,2.70
2023-09-09T21:50:06.871Z,3.38
2023-09-09T21:52:33.693Z,3.33
2023-09-09T21:55:03.134Z,2.83
2023-09-09T21:57:29.857Z,2.45
2023-09-09T21:59:58.955Z,2.92
2023-09-09T22:02:25.887Z,2.90
2023-09-09T22:04:52.757Z,3.15
2023-09-09T22:07:20.822Z,2.88
2023-09-09T22:09:47.965Z,3.08
2023-09-09T22:12:17.360Z,2.83
2023-09-09T22:14:46.365Z,2.70
2023-09-09T22:17:13.380Z,2.97
2023-09-09T22:19:40.499Z,2.47
2023-09-09T22:22:09.947Z,2.72
2023-09-09T22:24:36.670Z,2.92
2023-09-09T22:27:03.667Z,3.50
2023-09-09T22:29:33.496Z,2.80
2023-09-09T22:32:00.453Z,3.28
2023-09-09T22:34:27.495Z,3.13
2023-09-09T22:36:54.417Z,2.85
2023-09-09T22:39:21.223Z,2.92
2023-09-09T22:41:47.949Z,2.63
2023-09-09T22:44:14.665Z,2.47
2023-09-09T22:46:41.748Z,2.63
2023-09-09T22:49:08.554Z,2.83
2023-09-09T22:51:35.334Z,3.22
2023-09-09T22:54:02.088Z,3.30
2023-09-09T22:56:28.857Z,2.78
2023-09-09T22:58:55.757Z,2.72
2023-09-09T23:01:25.265Z,2.72
2023-09-09T23:03:52.151Z,2.70
2023-09-09T23:06:18.989Z,2.80
2023-09-09T23:08:45.794Z,2.92
2023-09-09T23:11:14.172Z,2.40
2023-09-09T23:13:43.279Z,2.78
2023-09-09T23:16:10.328Z,2.58
2023-09-09T23:18:38.902Z,2.90
2023-09-09T23:21:07.506Z,2.30
2023-09-09T23:23:34.436Z,2.70
2023-09-09T23:26:03.228Z,2.60
2023-09-09T23:28:30.259Z,2.67
2023-09-09T23:31:06.946Z,2.78
2023-09-09T23:33:34.990Z,3.10
2023-09-09T23:36:03.951Z,2.40
2023-09-09T23:38:32.230Z,2.40
2023-09-09T23:40:59.079Z,2.22
2023-09-09T23:43:26.506Z,2.65
2023-09-09T23:45:53.663Z,2.92
2023-09-09T23:48:20.602Z,3.28
2023-09-09T23:50:47.606Z,2.92
2023-09-09T23:53:15.091Z,2.83
2023-09-09T23:55:42.040Z,2.42
2023-09-09T23:58:08.826Z,2.85
